Moulton, Iowa
Current Conditions -  °F | °C
As of 11:30 PM on Friday 19 Dec 2014 (Local Time) from KTVK Reporting Station
Haze Haze  
Wind Chill: 23°   Ceiling: 100
Heat Index: 30°   Visibility: 5mi
Dew Point: 30°   Wind: 7mph
Humidity: 100%   Direction: 140°SE
Pressure: 30.22"   Gusts: NA
Location:  40.69°N, 92.68°W
Report Text: KTVK 200530Z AUTO 14006KT 5SM BR OVC001 M01/M01 A3022 RMK AO2
Loading
Personal Weather Stations






























Interactive Weather Map New forecast layout! Learn more

10-Day Weather Forecast

Advertisements
Track Severe Weather on mobile